sensor_id;sensor_type;location;lat;lon;timestamp;pressure;altitude;pressure_sealevel;temperature;humidity
10115;BME280;5097;43.260;27.812;2023-04-28T00:01:56;100303.59;;;7.24;62.94
10115;BME280;5097;43.260;27.812;2023-04-28T00:04:40;100216.97;;;6.74;62.72
10115;BME280;5097;43.260;27.812;2023-04-28T00:07:24;100264.19;;;7.24;62.47
10115;BME280;5097;43.260;27.812;2023-04-28T00:10:09;100307.13;;;7.23;62.96
10115;BME280;5097;43.260;27.812;2023-04-28T00:12:53;100251.78;;;7.04;62.71
10115;BME280;5097;43.260;27.812;2023-04-28T00:15:38;100296.91;;;7.15;63.41
10115;BME280;5097;43.260;27.812;2023-04-28T00:18:22;100239.09;;;6.92;63.10
10115;BME280;5097;43.260;27.812;2023-04-28T00:21:06;100299.44;;;6.93;63.28
10115;BME280;5097;43.260;27.812;2023-04-28T00:23:50;100259.94;;;6.71;63.99
10115;BME280;5097;43.260;27.812;2023-04-28T00:26:35;100288.63;;;6.77;64.13
10115;BME280;5097;43.260;27.812;2023-04-28T00:29:18;100272.53;;;6.61;64.26
10115;BME280;5097;43.260;27.812;2023-04-28T00:32:04;100322.69;;;6.79;64.82
10115;BME280;5097;43.260;27.812;2023-04-28T00:34:48;100295.41;;;6.58;64.78
10115;BME280;5097;43.260;27.812;2023-04-28T00:37:35;100323.25;;;6.88;64.86
10115;BME280;5097;43.260;27.812;2023-04-28T00:40:19;100256.56;;;6.42;64.82
10115;BME280;5097;43.260;27.812;2023-04-28T00:43:05;100270.66;;;6.65;65.13
10115;BME280;5097;43.260;27.812;2023-04-28T00:45:49;100320.31;;;6.71;65.90
10115;BME280;5097;43.260;27.812;2023-04-28T00:48:35;100281.59;;;6.78;64.91
10115;BME280;5097;43.260;27.812;2023-04-28T00:51:19;100281.56;;;6.27;66.00
10115;BME280;5097;43.260;27.812;2023-04-28T00:54:05;100301.28;;;6.64;65.07
10115;BME280;5097;43.260;27.812;2023-04-28T00:56:49;100283.63;;;6.69;64.32
10115;BME280;5097;43.260;27.812;2023-04-28T00:59:33;100305.97;;;6.81;64.46
10115;BME280;5097;43.260;27.812;2023-04-28T01:02:17;100319.31;;;7.00;64.31
10115;BME280;5097;43.260;27.812;2023-04-28T01:05:03;100324.03;;;6.91;64.73
10115;BME280;5097;43.260;27.812;2023-04-28T01:07:48;100323.72;;;6.75;64.66
10115;BME280;5097;43.260;27.812;2023-04-28T01:10:32;100280.28;;;6.39;64.07
10115;BME280;5097;43.260;27.812;2023-04-28T01:13:23;100277.13;;;6.54;63.51
10115;BME280;5097;43.260;27.812;2023-04-28T01:16:08;100323.16;;;6.65;64.25
10115;BME280;5097;43.260;27.812;2023-04-28T01:18:53;100292.13;;;6.51;63.31
10115;BME280;5097;43.260;27.812;2023-04-28T01:21:38;100303.94;;;6.37;63.67
10115;BME280;5097;43.260;27.812;2023-04-28T01:24:42;100325.19;;;6.57;63.55
10115;BME280;5097;43.260;27.812;2023-04-28T01:27:28;100270.16;;;6.28;64.06
10115;BME280;5097;43.260;27.812;2023-04-28T01:30:13;100331.47;;;6.52;63.92
10115;BME280;5097;43.260;27.812;2023-04-28T01:32:57;100327.16;;;6.50;63.63
10115;BME280;5097;43.260;27.812;2023-04-28T01:35:41;100291.16;;;6.27;63.98
10115;BME280;5097;43.260;27.812;2023-04-28T01:38:25;100303.50;;;6.51;63.70
10115;BME280;5097;43.260;27.812;2023-04-28T01:41:10;100226.47;;;6.00;63.47
10115;BME280;5097;43.260;27.812;2023-04-28T01:43:54;100259.59;;;6.30;62.83
10115;BME280;5097;43.260;27.812;2023-04-28T01:46:39;100300.16;;;6.46;62.90
10115;BME280;5097;43.260;27.812;2023-04-28T01:49:23;100225.78;;;5.65;63.49
10115;BME280;5097;43.260;27.812;2023-04-28T01:52:08;100273.16;;;6.16;63.28
10115;BME280;5097;43.260;27.812;2023-04-28T01:54:51;100280.25;;;6.14;62.99
10115;BME280;5097;43.260;27.812;2023-04-28T01:57:38;100318.72;;;6.40;63.33
10115;BME280;5097;43.260;27.812;2023-04-28T02:00:22;100294.69;;;5.97;63.60
10115;BME280;5097;43.260;27.812;2023-04-28T02:03:06;100334.03;;;6.27;63.55
10115;BME280;5097;43.260;27.812;2023-04-28T02:05:50;100291.22;;;6.25;62.54
10115;BME280;5097;43.260;27.812;2023-04-28T02:08:35;100278.91;;;6.00;62.61
10115;BME280;5097;43.260;27.812;2023-04-28T02:11:19;100293.28;;;6.15;62.89
10115;BME280;5097;43.260;27.812;2023-04-28T02:14:04;100292.22;;;6.21;63.37
10115;BME280;5097;43.260;27.812;2023-04-28T02:17:08;100302.72;;;6.21;63.48
10115;BME280;5097;43.260;27.812;2023-04-28T02:19:54;100281.63;;;6.24;62.48
10115;BME280;5097;43.260;27.812;2023-04-28T02:22:39;100328.56;;;6.33;62.63
10115;BME280;5097;43.260;27.812;2023-04-28T02:25:23;100340.19;;;6.53;62.64
10115;BME280;5097;43.260;27.812;2023-04-28T02:28:07;100338.69;;;6.17;63.06
10115;BME280;5097;43.260;27.812;2023-04-28T02:30:53;100303.97;;;6.09;62.50
10115;BME280;5097;43.260;27.812;2023-04-28T02:33:39;100339.75;;;6.12;63.66
10115;BME280;5097;43.260;27.812;2023-04-28T02:36:23;100310.16;;;6.07;63.46
10115;BME280;5097;43.260;27.812;2023-04-28T02:39:09;100305.94;;;6.29;62.55
10115;BME280;5097;43.260;27.812;2023-04-28T02:41:53;100323.78;;;6.19;62.54
10115;BME280;5097;43.260;27.812;2023-04-28T02:44:38;100327.72;;;6.33;62.53
10115;BME280;5097;43.260;27.812;2023-04-28T02:47:24;100358.66;;;6.50;62.05
10115;BME280;5097;43.260;27.812;2023-04-28T02:50:08;100313.22;;;6.21;61.94
10115;BME280;5097;43.260;27.812;2023-04-28T02:52:53;100334.63;;;6.35;62.14
10115;BME280;5097;43.260;27.812;2023-04-28T02:55:37;100340.13;;;6.28;62.00
10115;BME280;5097;43.260;27.812;2023-04-28T02:58:21;100344.34;;;6.32;63.01
10115;BME280;5097;43.260;27.812;2023-04-28T03:01:05;100344.22;;;6.36;62.00
10115;BME280;5097;43.260;27.812;2023-04-28T03:03:51;100378.53;;;6.57;62.85
10115;BME280;5097;43.260;27.812;2023-04-28T03:06:35;100332.97;;;6.33;61.93
10115;BME280;5097;43.260;27.812;2023-04-28T03:09:20;100377.81;;;6.52;61.65
10115;BME280;5097;43.260;27.812;2023-04-28T03:12:04;100346.75;;;6.40;61.79
10115;BME280;5097;43.260;27.812;2023-04-28T03:14:48;100358.53;;;6.26;61.98
10115;BME280;5097;43.260;27.812;2023-04-28T03:17:33;100384.31;;;6.42;60.81
10115;BME280;5097;43.260;27.812;2023-04-28T03:20:19;100353.28;;;6.26;62.47
10115;BME280;5097;43.260;27.812;2023-04-28T03:23:03;100400.84;;;6.44;62.36
10115;BME280;5097;43.260;27.812;2023-04-28T03:25:49;100367.91;;;6.33;62.43
10115;BME280;5097;43.260;27.812;2023-04-28T03:28:34;100402.78;;;6.65;62.18
10115;BME280;5097;43.260;27.812;2023-04-28T03:31:18;100406.00;;;6.74;63.30
10115;BME280;5097;43.260;27.812;2023-04-28T03:34:02;100376.00;;;6.27;63.84
10115;BME280;5097;43.260;27.812;2023-04-28T03:36:48;100417.13;;;6.55;64.52
10115;BME280;5097;43.260;27.812;2023-04-28T03:39:40;100376.50;;;6.10;64.18
10115;BME280;5097;43.260;27.812;2023-04-28T03:42:24;100388.50;;;6.19;63.73
10115;BME280;5097;43.260;27.812;2023-04-28T03:45:21;100354.97;;;5.69;65.58
10115;BME280;5097;43.260;27.812;2023-04-28T03:48:06;100430.69;;;5.80;64.85
10115;BME280;5097;43.260;27.812;2023-04-28T03:50:50;100405.94;;;6.20;61.38
10115;BME280;5097;43.260;27.812;2023-04-28T03:53:36;100432.09;;;6.51;62.97
10115;BME280;5097;43.260;27.812;2023-04-28T03:56:20;100426.97;;;6.48;60.52
10115;BME280;5097;43.260;27.812;2023-04-28T03:59:04;100433.38;;;6.66;59.48
10115;BME280;5097;43.260;27.812;2023-04-28T04:01:48;100438.44;;;6.73;59.84
10115;BME280;5097;43.260;27.812;2023-04-28T04:04:33;100437.97;;;6.86;58.64
10115;BME280;5097;43.260;27.812;2023-04-28T04:07:18;100402.69;;;6.68;59.10
10115;BME280;5097;43.260;27.812;2023-04-28T04:10:05;100446.69;;;7.14;58.51
10115;BME280;5097;43.260;27.812;2023-04-28T04:12:53;100452.38;;;7.01;58.27
10115;BME280;5097;43.260;27.812;2023-04-28T04:15:37;100354.44;;;6.46;57.73
10115;BME280;5097;43.260;27.812;2023-04-28T04:18:23;100385.22;;;6.67;57.62
10115;BME280;5097;43.260;27.812;2023-04-28T04:21:32;100401.22;;;6.86;57.04
10115;BME280;5097;43.260;27.812;2023-04-28T04:24:17;100449.72;;;7.28;57.50
10115;BME280;5097;43.260;27.812;2023-04-28T04:27:02;100409.03;;;6.88;56.19
10115;BME280;5097;43.260;27.812;2023-04-28T04:29:49;100405.31;;;7.20;56.29
10115;BME280;5097;43.260;27.812;2023-04-28T04:32:33;100421.19;;;7.17;55.79
10115;BME280;5097;43.260;27.812;2023-04-28T04:35:18;100393.94;;;7.20;55.42
10115;BME280;5097;43.260;27.812;2023-04-28T04:38:02;100415.75;;;7.49;55.21
10115;BME280;5097;43.260;27.812;2023-04-28T04:40:46;100455.16;;;7.98;54.52
10115;BME280;5097;43.260;27.812;2023-04-28T04:43:32;100458.25;;;7.60;55.13
10115;BME280;5097;43.260;27.812;2023-04-28T04:46:16;100459.16;;;7.59;54.27
10115;BME280;5097;43.260;27.812;2023-04-28T04:49:01;100409.78;;;7.44;53.74
10115;BME280;5097;43.260;27.812;2023-04-28T04:51:45;100422.03;;;7.68;53.17
10115;BME280;5097;43.260;27.812;2023-04-28T04:54:29;100454.69;;;8.34;52.23
10115;BME280;5097;43.260;27.812;2023-04-28T04:57:13;100411.81;;;8.08;52.22
10115;BME280;5097;43.260;27.812;2023-04-28T05:00:18;100408.47;;;7.79;53.05
10115;BME280;5097;43.260;27.812;2023-04-28T05:03:03;100407.63;;;7.79;52.40
10115;BME280;5097;43.260;27.812;2023-04-28T05:05:48;100444.69;;;8.42;52.57
10115;BME280;5097;43.260;27.812;2023-04-28T05:08:45;100449.22;;;8.62;51.59
10115;BME280;5097;43.260;27.812;2023-04-28T05:11:29;100445.47;;;8.68;51.62
10115;BME280;5097;43.260;27.812;2023-04-28T05:14:13;100374.81;;;8.57;51.00
10115;BME280;5097;43.260;27.812;2023-04-28T05:17:00;100463.09;;;9.10;49.93
10115;BME280;5097;43.260;27.812;2023-04-28T05:19:50;100470.09;;;8.89;50.40
10115;BME280;5097;43.260;27.812;2023-04-28T05:22:34;100405.16;;;8.44;49.01
10115;BME280;5097;43.260;27.812;2023-04-28T05:25:18;100462.28;;;9.08;49.59
10115;BME280;5097;43.260;27.812;2023-04-28T05:28:02;100435.16;;;9.06;48.67
10115;BME280;5097;43.260;27.812;2023-04-28T05:30:49;100460.25;;;9.15;49.80
10115;BME280;5097;43.260;27.812;2023-04-28T05:33:35;100407.91;;;8.41;49.12
10115;BME280;5097;43.260;27.812;2023-04-28T05:36:20;100470.69;;;9.59;48.87
10115;BME280;5097;43.260;27.812;2023-04-28T05:39:04;100429.09;;;9.25;48.86
10115;BME280;5097;43.260;27.812;2023-04-28T05:41:48;100441.88;;;9.54;48.35
10115;BME280;5097;43.260;27.812;2023-04-28T05:44:32;100435.75;;;9.13;48.57
10115;BME280;5097;43.260;27.812;2023-04-28T05:47:16;100469.34;;;9.90;48.64
10115;BME280;5097;43.260;27.812;2023-04-28T05:50:02;100439.06;;;9.59;46.82
10115;BME280;5097;43.260;27.812;2023-04-28T05:52:46;100471.00;;;9.72;47.78
10115;BME280;5097;43.260;27.812;2023-04-28T05:55:30;100423.34;;;9.56;47.49
10115;BME280;5097;43.260;27.812;2023-04-28T05:58:15;100456.59;;;9.39;46.23
10115;BME280;5097;43.260;27.812;2023-04-28T06:01:00;100429.41;;;9.37;47.00
10115;BME280;5097;43.260;27.812;2023-04-28T06:03:44;100480.31;;;9.81;45.08
10115;BME280;5097;43.260;27.812;2023-04-28T06:06:30;100463.72;;;9.58;45.39
10115;BME280;5097;43.260;27.812;2023-04-28T06:09:15;100439.34;;;9.72;45.91
10115;BME280;5097;43.260;27.812;2023-04-28T06:12:00;100442.06;;;9.89;45.51
10115;BME280;5097;43.260;27.812;2023-04-28T06:14:45;100402.06;;;9.61;45.57
10115;BME280;5097;43.260;27.812;2023-04-28T06:17:29;100417.72;;;10.03;44.91
10115;BME280;5097;43.260;27.812;2023-04-28T06:20:14;100472.69;;;9.94;44.63
10115;BME280;5097;43.260;27.812;2023-04-28T06:23:00;100437.78;;;9.87;45.10
10115;BME280;5097;43.260;27.812;2023-04-28T06:25:46;100446.84;;;10.40;45.60
10115;BME280;5097;43.260;27.812;2023-04-28T06:28:30;100496.50;;;10.32;44.01
10115;BME280;5097;43.260;27.812;2023-04-28T06:31:15;100478.28;;;10.26;44.22
10115;BME280;5097;43.260;27.812;2023-04-28T06:33:59;100495.78;;;10.47;43.20
10115;BME280;5097;43.260;27.812;2023-04-28T06:36:43;100459.78;;;10.46;43.70
10115;BME280;5097;43.260;27.812;2023-04-28T06:39:29;100484.81;;;10.56;43.50
10115;BME280;5097;43.260;27.812;2023-04-28T06:42:13;100487.69;;;10.31;42.94
10115;BME280;5097;43.260;27.812;2023-04-28T06:45:08;100475.31;;;10.52;43.46
10115;BME280;5097;43.260;27.812;2023-04-28T06:47:53;100464.81;;;10.51;42.96
10115;BME280;5097;43.260;27.812;2023-04-28T06:50:38;100488.09;;;10.43;42.29
10115;BME280;5097;43.260;27.812;2023-04-28T06:53:26;100481.53;;;10.70;42.19
10115;BME280;5097;43.260;27.812;2023-04-28T06:56:12;100456.78;;;10.71;41.53
10115;BME280;5097;43.260;27.812;2023-04-28T06:58:56;100447.84;;;10.37;41.99
10115;BME280;5097;43.260;27.812;2023-04-28T07:01:40;100482.75;;;10.81;41.52
10115;BME280;5097;43.260;27.812;2023-04-28T07:04:24;100430.69;;;10.65;42.72
10115;BME280;5097;43.260;27.812;2023-04-28T07:07:09;100478.09;;;10.68;41.68
10115;BME280;5097;43.260;27.812;2023-04-28T07:09:54;100443.41;;;10.57;41.95
10115;BME280;5097;43.260;27.812;2023-04-28T07:12:40;100478.06;;;11.05;42.37
10115;BME280;5097;43.260;27.812;2023-04-28T07:15:24;100432.25;;;10.69;40.68
10115;BME280;5097;43.260;27.812;2023-04-28T07:18:08;100454.50;;;10.83;41.60
10115;BME280;5097;43.260;27.812;2023-04-28T07:20:53;100383.84;;;10.69;40.12
10115;BME280;5097;43.260;27.812;2023-04-28T07:23:37;100414.41;;;11.10;41.90
10115;BME280;5097;43.260;27.812;2023-04-28T07:26:22;100384.22;;;10.79;39.78
10115;BME280;5097;43.260;27.812;2023-04-28T07:29:08;100478.50;;;11.32;39.98
10115;BME280;5097;43.260;27.812;2023-04-28T07:31:55;100474.38;;;11.27;39.81
10115;BME280;5097;43.260;27.812;2023-04-28T07:34:39;100484.25;;;11.40;40.30
10115;BME280;5097;43.260;27.812;2023-04-28T07:37:23;100478.66;;;11.29;39.25
10115;BME280;5097;43.260;27.812;2023-04-28T07:40:08;100466.81;;;11.19;39.63
10115;BME280;5097;43.260;27.812;2023-04-28T07:42:52;100486.13;;;11.56;38.63
10115;BME280;5097;43.260;27.812;2023-04-28T07:45:39;100445.78;;;10.98;39.30
10115;BME280;5097;43.260;27.812;2023-04-28T07:48:23;100489.34;;;11.61;38.31
10115;BME280;5097;43.260;27.812;2023-04-28T07:51:08;100444.94;;;11.33;37.53
10115;BME280;5097;43.260;27.812;2023-04-28T07:53:52;100459.41;;;11.94;39.71
10115;BME280;5097;43.260;27.812;2023-04-28T07:56:36;100457.78;;;11.91;37.85
10115;BME280;5097;43.260;27.812;2023-04-28T07:59:20;100426.91;;;11.74;37.67
10115;BME280;5097;43.260;27.812;2023-04-28T08:02:06;100465.06;;;11.70;36.94
10115;BME280;5097;43.260;27.812;2023-04-28T08:04:50;100463.53;;;12.00;37.84
10115;BME280;5097;43.260;27.812;2023-04-28T08:07:35;100411.94;;;11.91;37.50
10115;BME280;5097;43.260;27.812;2023-04-28T08:10:19;100447.22;;;11.74;36.88
10115;BME280;5097;43.260;27.812;2023-04-28T08:13:03;100440.75;;;11.80;37.66
10115;BME280;5097;43.260;27.812;2023-04-28T08:15:47;100466.16;;;12.33;37.49
10115;BME280;5097;43.260;27.812;2023-04-28T08:18:33;100464.28;;;12.35;36.62
10115;BME280;5097;43.260;27.812;2023-04-28T08:21:18;100455.47;;;12.51;37.29
10115;BME280;5097;43.260;27.812;2023-04-28T08:24:02;100410.94;;;12.26;37.18
10115;BME280;5097;43.260;27.812;2023-04-28T08:26:46;100463.59;;;12.48;37.23
10115;BME280;5097;43.260;27.812;2023-04-28T08:29:31;100462.84;;;12.30;36.35
10115;BME280;5097;43.260;27.812;2023-04-28T08:32:15;100408.38;;;12.08;35.99
10115;BME280;5097;43.260;27.812;2023-04-28T08:35:01;100441.69;;;12.76;36.35
10115;BME280;5097;43.260;27.812;2023-04-28T08:37:45;100425.56;;;12.65;35.87
10115;BME280;5097;43.260;27.812;2023-04-28T08:40:31;100416.91;;;12.61;36.68
10115;BME280;5097;43.260;27.812;2023-04-28T08:43:15;100426.28;;;12.83;36.26
10115;BME280;5097;43.260;27.812;2023-04-28T08:45:59;100450.22;;;12.97;36.27
10115;BME280;5097;43.260;27.812;2023-04-28T08:48:48;100398.88;;;12.68;36.46
10115;BME280;5097;43.260;27.812;2023-04-28T08:51:37;100410.09;;;13.18;35.52
10115;BME280;5097;43.260;27.812;2023-04-28T08:54:29;100394.56;;;13.12;36.20
10115;BME280;5097;43.260;27.812;2023-04-28T08:57:14;100438.06;;;12.93;36.01
10115;BME280;5097;43.260;27.812;2023-04-28T08:59:59;100398.81;;;12.37;36.09
10115;BME280;5097;43.260;27.812;2023-04-28T09:02:45;100399.59;;;12.86;35.99
10115;BME280;5097;43.260;27.812;2023-04-28T09:05:30;100390.00;;;13.14;36.01
10115;BME280;5097;43.260;27.812;2023-04-28T09:08:16;100384.59;;;13.60;35.46
10115;BME280;5097;43.260;27.812;2023-04-28T09:11:10;100375.44;;;13.35;33.28
10115;BME280;5097;43.260;27.812;2023-04-28T09:14:11;100394.59;;;13.26;34.63
10115;BME280;5097;43.260;27.812;2023-04-28T09:16:55;100383.84;;;12.52;35.52
10115;BME280;5097;43.260;27.812;2023-04-28T09:19:40;100424.69;;;13.11;34.80
10115;BME280;5097;43.260;27.812;2023-04-28T09:22:27;100419.97;;;13.16;36.01
10115;BME280;5097;43.260;27.812;2023-04-28T09:25:13;100421.09;;;13.71;35.29
10115;BME280;5097;43.260;27.812;2023-04-28T09:27:58;100415.91;;;13.84;34.60
10115;BME280;5097;43.260;27.812;2023-04-28T09:30:42;100374.44;;;13.38;34.27
10115;BME280;5097;43.260;27.812;2023-04-28T09:33:26;100397.16;;;13.28;33.56
10115;BME280;5097;43.260;27.812;2023-04-28T09:36:11;100411.38;;;12.96;34.08
10115;BME280;5097;43.260;27.812;2023-04-28T09:38:57;100407.91;;;13.40;34.33
10115;BME280;5097;43.260;27.812;2023-04-28T09:41:43;100428.78;;;13.61;34.09
10115;BME280;5097;43.260;27.812;2023-04-28T09:44:28;100435.34;;;12.79;33.57
10115;BME280;5097;43.260;27.812;2023-04-28T09:47:19;100414.25;;;13.07;33.49
10115;BME280;5097;43.260;27.812;2023-04-28T09:50:05;100402.06;;;13.19;33.22
10115;BME280;5097;43.260;27.812;2023-04-28T09:52:56;100387.84;;;12.60;33.19
10115;BME280;5097;43.260;27.812;2023-04-28T09:55:43;100422.38;;;13.04;32.84
10115;BME280;5097;43.260;27.812;2023-04-28T09:58:29;100399.31;;;13.35;33.21
10115;BME280;5097;43.260;27.812;2023-04-28T10:01:14;100348.94;;;13.64;33.32
10115;BME280;5097;43.260;27.812;2023-04-28T10:03:59;100359.06;;;13.14;32.97
10115;BME280;5097;43.260;27.812;2023-04-28T10:06:44;100359.75;;;12.87;34.14
10115;BME280;5097;43.260;27.812;2023-04-28T10:09:30;100403.56;;;13.39;33.43
10115;BME280;5097;43.260;27.812;2023-04-28T10:12:15;100336.50;;;13.79;33.22
10115;BME280;5097;43.260;27.812;2023-04-28T10:15:02;100386.69;;;13.84;33.00
10115;BME280;5097;43.260;27.812;2023-04-28T10:17:49;100360.09;;;13.26;32.59
10115;BME280;5097;43.260;27.812;2023-04-28T10:20:34;100394.84;;;13.52;32.69
10115;BME280;5097;43.260;27.812;2023-04-28T10:27:00;100397.66;;;13.49;33.58
10115;BME280;5097;43.260;27.812;2023-04-28T10:29:46;100423.19;;;13.21;33.33
10115;BME280;5097;43.260;27.812;2023-04-28T10:32:31;100395.69;;;13.67;34.11
10115;BME280;5097;43.260;27.812;2023-04-28T10:35:41;100393.66;;;14.14;33.63
10115;BME280;5097;43.260;27.812;2023-04-28T10:38:26;100390.91;;;14.15;33.38
10115;BME280;5097;43.260;27.812;2023-04-28T10:41:30;100383.06;;;13.99;32.49
10115;BME280;5097;43.260;27.812;2023-04-28T10:44:42;100362.53;;;14.70;32.89
10115;BME280;5097;43.260;27.812;2023-04-28T10:47:26;100352.91;;;13.86;34.08
10115;BME280;5097;43.260;27.812;2023-04-28T10:50:12;100342.09;;;13.89;33.24
10115;BME280;5097;43.260;27.812;2023-04-28T10:52:56;100356.50;;;13.85;32.92
10115;BME280;5097;43.260;27.812;2023-04-28T10:55:41;100374.28;;;14.12;32.35
10115;BME280;5097;43.260;27.812;2023-04-28T10:58:32;100397.53;;;14.64;32.49
10115;BME280;5097;43.260;27.812;2023-04-28T11:01:26;100393.00;;;14.10;32.42
10115;BME280;5097;43.260;27.812;2023-04-28T11:04:11;100342.53;;;13.96;32.25
10115;BME280;5097;43.260;27.812;2023-04-28T11:07:10;100357.66;;;14.64;32.25
10115;BME280;5097;43.260;27.812;2023-04-28T11:09:56;100383.69;;;14.17;31.68
10115;BME280;5097;43.260;27.812;2023-04-28T11:16:02;100371.69;;;13.97;31.22
10115;BME280;5097;43.260;27.812;2023-04-28T11:18:58;100364.84;;;14.35;31.63
10115;BME280;5097;43.260;27.812;2023-04-28T11:21:47;100315.69;;;14.28;31.46
10115;BME280;5097;43.260;27.812;2023-04-28T11:24:33;100378.69;;;15.07;31.60
10115;BME280;5097;43.260;27.812;2023-04-28T11:27:22;100337.34;;;14.49;30.51
10115;BME280;5097;43.260;27.812;2023-04-28T11:30:19;100327.50;;;14.91;30.77
10115;BME280;5097;43.260;27.812;2023-04-28T11:33:04;100383.59;;;15.14;30.98
10115;BME280;5097;43.260;27.812;2023-04-28T11:35:49;100344.44;;;15.29;31.54
10115;BME280;5097;43.260;27.812;2023-04-28T11:38:42;100380.16;;;14.99;30.85
10115;BME280;5097;43.260;27.812;2023-04-28T11:41:28;100373.59;;;15.17;30.82
10115;BME280;5097;43.260;27.812;2023-04-28T11:44:14;100378.59;;;14.69;31.29
10115;BME280;5097;43.260;27.812;2023-04-28T11:47:00;100370.06;;;14.91;30.72
10115;BME280;5097;43.260;27.812;2023-04-28T11:49:46;100394.06;;;15.55;32.25
10115;BME280;5097;43.260;27.812;2023-04-28T11:52:31;100348.75;;;14.51;31.32
10115;BME280;5097;43.260;27.812;2023-04-28T11:55:16;100384.41;;;15.01;31.51
10115;BME280;5097;43.260;27.812;2023-04-28T11:58:20;100333.75;;;15.67;30.46
10115;BME280;5097;43.260;27.812;2023-04-28T12:01:06;100387.75;;;15.31;30.68
10115;BME280;5097;43.260;27.812;2023-04-28T12:03:51;100368.81;;;14.69;31.50
10115;BME280;5097;43.260;27.812;2023-04-28T12:06:37;100339.03;;;14.64;30.85
10115;BME280;5097;43.260;27.812;2023-04-28T12:09:21;100377.78;;;14.81;30.82
10115;BME280;5097;43.260;27.812;2023-04-28T12:12:08;100338.06;;;14.65;30.10
10115;BME280;5097;43.260;27.812;2023-04-28T12:14:55;100351.53;;;14.62;30.84
10115;BME280;5097;43.260;27.812;2023-04-28T12:17:41;100360.75;;;14.71;31.07
10115;BME280;5097;43.260;27.812;2023-04-28T12:20:36;100323.75;;;14.81;31.04
10115;BME280;5097;43.260;27.812;2023-04-28T12:23:28;100355.94;;;15.29;30.62
10115;BME280;5097;43.260;27.812;2023-04-28T12:26:13;100352.53;;;15.27;30.13
10115;BME280;5097;43.260;27.812;2023-04-28T12:28:57;100325.06;;;15.27;31.36
10115;BME280;5097;43.260;27.812;2023-04-28T12:31:49;100359.31;;;14.93;31.36
10115;BME280;5097;43.260;27.812;2023-04-28T12:34:36;100316.78;;;14.65;31.84
10115;BME280;5097;43.260;27.812;2023-04-28T12:37:21;100287.03;;;14.99;30.89
10115;BME280;5097;43.260;27.812;2023-04-28T12:40:06;100349.75;;;15.16;31.50
10115;BME280;5097;43.260;27.812;2023-04-28T12:42:51;100342.72;;;15.15;31.71
10115;BME280;5097;43.260;27.812;2023-04-28T12:45:36;100339.53;;;15.35;30.60
10115;BME280;5097;43.260;27.812;2023-04-28T12:48:22;100340.09;;;15.78;30.95
10115;BME280;5097;43.260;27.812;2023-04-28T12:51:07;100356.78;;;15.55;30.22
10115;BME280;5097;43.260;27.812;2023-04-28T12:53:51;100331.63;;;15.47;31.27
10115;BME280;5097;43.260;27.812;2023-04-28T12:56:35;100320.03;;;14.83;30.84
10115;BME280;5097;43.260;27.812;2023-04-28T12:59:19;100343.38;;;15.31;30.33
10115;BME280;5097;43.260;27.812;2023-04-28T13:02:04;100320.06;;;15.22;31.43
10115;BME280;5097;43.260;27.812;2023-04-28T13:04:49;100347.75;;;14.66;31.64
10115;BME280;5097;43.260;27.812;2023-04-28T13:07:35;100345.88;;;14.81;31.22
10115;BME280;5097;43.260;27.812;2023-04-28T13:10:19;100314.19;;;15.17;31.86
10115;BME280;5097;43.260;27.812;2023-04-28T13:13:04;100311.53;;;15.04;32.01
10115;BME280;5097;43.260;27.812;2023-04-28T13:15:49;100332.81;;;14.51;31.52
10115;BME280;5097;43.260;27.812;2023-04-28T13:18:33;100342.22;;;14.69;30.76
10115;BME280;5097;43.260;27.812;2023-04-28T13:21:19;100344.59;;;14.47;31.76
10115;BME280;5097;43.260;27.812;2023-04-28T13:24:04;100342.44;;;14.66;32.36
10115;BME280;5097;43.260;27.812;2023-04-28T13:26:48;100263.97;;;14.99;31.17
10115;BME280;5097;43.260;27.812;2023-04-28T13:29:32;100323.91;;;15.18;32.39
10115;BME280;5097;43.260;27.812;2023-04-28T13:32:16;100318.28;;;15.72;31.03
10115;BME280;5097;43.260;27.812;2023-04-28T13:35:00;100340.91;;;16.41;30.94
10115;BME280;5097;43.260;27.812;2023-04-28T13:37:46;100357.63;;;15.56;30.83
10115;BME280;5097;43.260;27.812;2023-04-28T13:40:31;100317.59;;;15.19;30.77
10115;BME280;5097;43.260;27.812;2023-04-28T13:43:16;100328.69;;;15.13;31.66
10115;BME280;5097;43.260;27.812;2023-04-28T13:46:00;100304.72;;;15.25;31.70
10115;BME280;5097;43.260;27.812;2023-04-28T13:48:50;100333.53;;;15.83;30.96
10115;BME280;5097;43.260;27.812;2023-04-28T13:51:34;100304.97;;;15.85;30.25
10115;BME280;5097;43.260;27.812;2023-04-28T13:54:19;100293.75;;;16.41;29.60
10115;BME280;5097;43.260;27.812;2023-04-28T13:57:03;100298.97;;;15.95;29.13
10115;BME280;5097;43.260;27.812;2023-04-28T13:59:47;100323.63;;;16.09;30.00
10115;BME280;5097;43.260;27.812;2023-04-28T14:02:32;100308.28;;;15.63;29.88
10115;BME280;5097;43.260;27.812;2023-04-28T14:05:16;100332.47;;;15.60;30.49
10115;BME280;5097;43.260;27.812;2023-04-28T14:08:00;100296.31;;;15.19;29.89
10115;BME280;5097;43.260;27.812;2023-04-28T14:10:46;100295.53;;;15.42;30.72
10115;BME280;5097;43.260;27.812;2023-04-28T14:13:31;100309.03;;;15.65;30.63
10115;BME280;5097;43.260;27.812;2023-04-28T14:16:15;100326.84;;;15.52;30.18
10115;BME280;5097;43.260;27.812;2023-04-28T14:18:59;100353.13;;;15.69;30.61
10115;BME280;5097;43.260;27.812;2023-04-28T14:21:43;100306.91;;;15.70;30.08
10115;BME280;5097;43.260;27.812;2023-04-28T14:24:27;100330.34;;;15.65;30.89
10115;BME280;5097;43.260;27.812;2023-04-28T14:27:13;100307.38;;;15.51;30.76
10115;BME280;5097;43.260;27.812;2023-04-28T14:29:58;100328.56;;;15.53;30.63
10115;BME280;5097;43.260;27.812;2023-04-28T14:32:46;100324.72;;;15.44;31.16
10115;BME280;5097;43.260;27.812;2023-04-28T14:35:30;100282.47;;;15.39;30.85
10115;BME280;5097;43.260;27.812;2023-04-28T14:38:14;100291.88;;;15.56;30.79
10115;BME280;5097;43.260;27.812;2023-04-28T14:40:58;100298.63;;;15.99;29.88